sensor_id;sensor_type;location;lat;lon;timestamp;pressure;altitude;pressure_sealevel;temperature;humidity
71735;BME280;59577;52.122;5.406;2023-03-12T00:00:15;101258.44;;;0.52;89.28
71735;BME280;59577;52.122;5.406;2023-03-12T00:02:42;101257.13;;;0.54;89.40
71735;BME280;59577;52.122;5.406;2023-03-12T00:05:12;101254.44;;;0.54;89.41
71735;BME280;59577;52.122;5.406;2023-03-12T00:07:39;101251.78;;;0.54;89.61
71735;BME280;59577;52.122;5.406;2023-03-12T00:10:06;101248.34;;;0.54;89.53
71735;BME280;59577;52.122;5.406;2023-03-12T00:12:33;101241.91;;;0.55;89.99
71735;BME280;59577;52.122;5.406;2023-03-12T00:15:00;101243.78;;;0.60;89.75
71735;BME280;59577;52.122;5.406;2023-03-12T00:17:33;101232.56;;;0.63;90.15
71735;BME280;59577;52.122;5.406;2023-03-12T00:20:00;101238.16;;;0.66;90.17
71735;BME280;59577;52.122;5.406;2023-03-12T00:22:29;101238.91;;;0.72;90.01
71735;BME280;59577;52.122;5.406;2023-03-12T00:24:56;101239.44;;;0.74;90.31
71735;BME280;59577;52.122;5.406;2023-03-12T00:27:24;101232.50;;;0.78;89.87
71735;BME280;59577;52.122;5.406;2023-03-12T00:29:51;101228.22;;;0.77;89.85
71735;BME280;59577;52.122;5.406;2023-03-12T00:32:18;101219.97;;;0.79;89.70
71735;BME280;59577;52.122;5.406;2023-03-12T00:34:53;101220.19;;;0.82;90.17
71735;BME280;59577;52.122;5.406;2023-03-12T00:37:21;101225.53;;;0.82;90.04
71735;BME280;59577;52.122;5.406;2023-03-12T00:39:47;101223.94;;;0.81;89.74
71735;BME280;59577;52.122;5.406;2023-03-12T00:42:14;101233.53;;;0.82;89.62
71735;BME280;59577;52.122;5.406;2023-03-12T00:44:42;101229.84;;;0.78;89.54
71735;BME280;59577;52.122;5.406;2023-03-12T00:47:10;101226.63;;;0.76;89.55
71735;BME280;59577;52.122;5.406;2023-03-12T00:49:37;101222.66;;;0.73;89.67
71735;BME280;59577;52.122;5.406;2023-03-12T00:52:05;101231.94;;;0.76;89.62
71735;BME280;59577;52.122;5.406;2023-03-12T00:54:36;101223.16;;;0.75;90.32
71735;BME280;59577;52.122;5.406;2023-03-12T00:57:05;101222.38;;;0.75;89.94
71735;BME280;59577;52.122;5.406;2023-03-12T00:59:32;101227.19;;;0.73;90.16
71735;BME280;59577;52.122;5.406;2023-03-12T01:02:07;101217.59;;;0.72;90.23
71735;BME280;59577;52.122;5.406;2023-03-12T01:04:48;101210.72;;;0.66;90.43
71735;BME280;59577;52.122;5.406;2023-03-12T01:07:22;101208.59;;;0.63;89.89
71735;BME280;59577;52.122;5.406;2023-03-12T01:10:13;101200.63;;;0.58;90.31
71735;BME280;59577;52.122;5.406;2023-03-12T01:12:55;101187.88;;;0.49;89.66
71735;BME280;59577;52.122;5.406;2023-03-12T01:15:24;101178.34;;;0.38;89.52
71735;BME280;59577;52.122;5.406;2023-03-12T01:17:50;101180.75;;;0.40;89.81
71735;BME280;59577;52.122;5.406;2023-03-12T01:20:17;101181.53;;;0.45;89.91
71735;BME280;59577;52.122;5.406;2023-03-12T01:22:43;101186.28;;;0.48;90.11
71735;BME280;59577;52.122;5.406;2023-03-12T01:25:10;101178.84;;;0.50;90.23
71735;BME280;59577;52.122;5.406;2023-03-12T01:27:37;101186.53;;;0.52;90.32
71735;BME280;59577;52.122;5.406;2023-03-12T01:30:04;101184.16;;;0.50;89.87
71735;BME280;59577;52.122;5.406;2023-03-12T01:32:42;101192.69;;;0.52;89.84
71735;BME280;59577;52.122;5.406;2023-03-12T01:35:10;101195.84;;;0.54;90.17
71735;BME280;59577;52.122;5.406;2023-03-12T01:37:37;101196.09;;;0.58;90.45
71735;BME280;59577;52.122;5.406;2023-03-12T01:40:20;101192.63;;;0.63;90.35
71735;BME280;59577;52.122;5.406;2023-03-12T01:42:56;101189.09;;;0.67;90.26
71735;BME280;59577;52.122;5.406;2023-03-12T01:45:49;101183.25;;;0.65;90.42
71735;BME280;59577;52.122;5.406;2023-03-12T01:48:42;101178.44;;;0.67;90.13
71735;BME280;59577;52.122;5.406;2023-03-12T01:51:12;101170.69;;;0.71;89.84
71735;BME280;59577;52.122;5.406;2023-03-12T01:53:46;101178.41;;;0.72;90.34
71735;BME280;59577;52.122;5.406;2023-03-12T01:56:17;101172.81;;;0.74;90.31
71735;BME280;59577;52.122;5.406;2023-03-12T01:58:52;101163.53;;;0.71;90.04
71735;BME280;59577;52.122;5.406;2023-03-12T02:01:28;101164.31;;;0.72;89.68
71735;BME280;59577;52.122;5.406;2023-03-12T02:03:57;101162.69;;;0.76;89.95
71735;BME280;59577;52.122;5.406;2023-03-12T02:06:32;101158.94;;;0.77;89.68
71735;BME280;59577;52.122;5.406;2023-03-12T02:09:01;101153.34;;;0.79;89.64
71735;BME280;59577;52.122;5.406;2023-03-12T02:11:28;101153.06;;;0.80;89.46
71735;BME280;59577;52.122;5.406;2023-03-12T02:13:55;101140.25;;;0.82;89.64
71735;BME280;59577;52.122;5.406;2023-03-12T02:16:22;101138.38;;;0.83;89.91
71735;BME280;59577;52.122;5.406;2023-03-12T02:18:49;101134.16;;;0.82;89.69
71735;BME280;59577;52.122;5.406;2023-03-12T02:21:23;101131.22;;;0.83;89.47
71735;BME280;59577;52.122;5.406;2023-03-12T02:24:16;101132.50;;;0.86;89.35
71735;BME280;59577;52.122;5.406;2023-03-12T02:26:44;101127.97;;;0.86;89.30
71735;BME280;59577;52.122;5.406;2023-03-12T02:29:11;101125.56;;;0.85;89.52
71735;BME280;59577;52.122;5.406;2023-03-12T02:31:46;101122.41;;;0.83;88.90
71735;BME280;59577;52.122;5.406;2023-03-12T02:34:14;101121.56;;;0.87;89.40
71735;BME280;59577;52.122;5.406;2023-03-12T02:36:40;101116.53;;;0.86;88.95
71735;BME280;59577;52.122;5.406;2023-03-12T02:39:11;101099.78;;;0.80;88.84
71735;BME280;59577;52.122;5.406;2023-03-12T02:41:41;101100.56;;;0.81;88.21
71735;BME280;59577;52.122;5.406;2023-03-12T02:44:14;101105.63;;;0.82;88.18
71735;BME280;59577;52.122;5.406;2023-03-12T02:46:44;101098.41;;;0.83;87.61
71735;BME280;59577;52.122;5.406;2023-03-12T02:49:12;101101.31;;;0.86;87.04
71735;BME280;59577;52.122;5.406;2023-03-12T02:51:40;101094.38;;;0.90;87.00
71735;BME280;59577;52.122;5.406;2023-03-12T02:54:08;101091.66;;;0.96;86.08
71735;BME280;59577;52.122;5.406;2023-03-12T02:56:34;101079.88;;;1.02;86.43
71735;BME280;59577;52.122;5.406;2023-03-12T02:59:01;101072.69;;;1.02;86.25
71735;BME280;59577;52.122;5.406;2023-03-12T03:01:30;101076.38;;;1.06;85.94
71735;BME280;59577;52.122;5.406;2023-03-12T03:04:03;101068.88;;;1.08;85.23
71735;BME280;59577;52.122;5.406;2023-03-12T03:06:31;101064.34;;;1.09;85.33
71735;BME280;59577;52.122;5.406;2023-03-12T03:08:58;101061.38;;;1.10;84.72
71735;BME280;59577;52.122;5.406;2023-03-12T03:11:25;101055.50;;;1.13;84.94
71735;BME280;59577;52.122;5.406;2023-03-12T03:13:52;101058.94;;;1.14;84.67
71735;BME280;59577;52.122;5.406;2023-03-12T03:16:19;101061.63;;;1.14;84.91
71735;BME280;59577;52.122;5.406;2023-03-12T03:18:46;101057.88;;;1.15;84.93
71735;BME280;59577;52.122;5.406;2023-03-12T03:21:14;101054.44;;;1.15;84.46
71735;BME280;59577;52.122;5.406;2023-03-12T03:23:46;101059.50;;;1.16;84.48
71735;BME280;59577;52.122;5.406;2023-03-12T03:26:14;101050.97;;;1.14;84.41
71735;BME280;59577;52.122;5.406;2023-03-12T03:28:41;101044.84;;;1.13;84.24
71735;BME280;59577;52.122;5.406;2023-03-12T03:31:06;101040.81;;;1.16;84.16
71735;BME280;59577;52.122;5.406;2023-03-12T03:33:35;101027.50;;;1.16;83.77
71735;BME280;59577;52.122;5.406;2023-03-12T03:36:02;101023.47;;;1.19;83.61
71735;BME280;59577;52.122;5.406;2023-03-12T03:38:29;101020.78;;;1.19;83.60
71735;BME280;59577;52.122;5.406;2023-03-12T03:40:57;101028.50;;;1.20;83.06
71735;BME280;59577;52.122;5.406;2023-03-12T03:43:23;101023.47;;;1.19;83.21
71735;BME280;59577;52.122;5.406;2023-03-12T03:46:01;101013.81;;;1.23;83.07
71735;BME280;59577;52.122;5.406;2023-03-12T03:48:28;101006.84;;;1.27;82.93
71735;BME280;59577;52.122;5.406;2023-03-12T03:51:02;100994.53;;;1.31;82.19
71735;BME280;59577;52.122;5.406;2023-03-12T03:53:30;100991.28;;;1.34;82.07
71735;BME280;59577;52.122;5.406;2023-03-12T03:55:57;100993.41;;;1.37;81.54
71735;BME280;59577;52.122;5.406;2023-03-12T03:58:23;100990.16;;;1.40;81.47
71735;BME280;59577;52.122;5.406;2023-03-12T04:00:50;100984.50;;;1.42;81.42
71735;BME280;59577;52.122;5.406;2023-03-12T04:03:16;100984.28;;;1.38;81.61
71735;BME280;59577;52.122;5.406;2023-03-12T04:05:43;100996.56;;;1.39;81.69
71735;BME280;59577;52.122;5.406;2023-03-12T04:08:12;101003.78;;;1.39;82.03
71735;BME280;59577;52.122;5.406;2023-03-12T04:10:39;101000.28;;;1.38;82.25
71735;BME280;59577;52.122;5.406;2023-03-12T04:13:06;101001.91;;;1.39;82.33
71735;BME280;59577;52.122;5.406;2023-03-12T04:15:32;100996.06;;;1.37;82.46
71735;BME280;59577;52.122;5.406;2023-03-12T04:17:59;101002.91;;;1.43;82.22
71735;BME280;59577;52.122;5.406;2023-03-12T04:20:25;100994.56;;;1.50;81.75
71735;BME280;59577;52.122;5.406;2023-03-12T04:22:52;100992.63;;;1.56;81.36
71735;BME280;59577;52.122;5.406;2023-03-12T04:25:18;100985.34;;;1.61;81.28
71735;BME280;59577;52.122;5.406;2023-03-12T04:27:45;100980.53;;;1.63;81.14
71735;BME280;59577;52.122;5.406;2023-03-12T04:30:12;100976.47;;;1.66;81.21
71735;BME280;59577;52.122;5.406;2023-03-12T04:32:38;100964.44;;;1.68;81.46
71735;BME280;59577;52.122;5.406;2023-03-12T04:35:05;100969.78;;;1.68;81.81
71735;BME280;59577;52.122;5.406;2023-03-12T04:37:32;100979.66;;;1.68;81.70
71735;BME280;59577;52.122;5.406;2023-03-12T04:40:00;100974.34;;;1.68;82.05
71735;BME280;59577;52.122;5.406;2023-03-12T04:42:28;100974.03;;;1.69;82.50
71735;BME280;59577;52.122;5.406;2023-03-12T04:44:55;100956.44;;;1.68;82.24
71735;BME280;59577;52.122;5.406;2023-03-12T04:47:21;100955.88;;;1.72;82.66
71735;BME280;59577;52.122;5.406;2023-03-12T04:49:48;100956.72;;;1.67;83.18
71735;BME280;59577;52.122;5.406;2023-03-12T04:52:14;100934.59;;;1.66;83.76
71735;BME280;59577;52.122;5.406;2023-03-12T04:54:43;100939.44;;;1.64;84.19
71735;BME280;59577;52.122;5.406;2023-03-12T04:57:13;100932.50;;;1.63;84.58
71735;BME280;59577;52.122;5.406;2023-03-12T04:59:39;100922.41;;;1.60;85.42
71735;BME280;59577;52.122;5.406;2023-03-12T05:02:06;100911.50;;;1.57;86.06
71735;BME280;59577;52.122;5.406;2023-03-12T05:04:32;100898.97;;;1.57;86.17
71735;BME280;59577;52.122;5.406;2023-03-12T05:06:59;100897.38;;;1.56;86.73
71735;BME280;59577;52.122;5.406;2023-03-12T05:09:25;100888.06;;;1.54;86.89
71735;BME280;59577;52.122;5.406;2023-03-12T05:11:52;100891.56;;;1.54;87.35
71735;BME280;59577;52.122;5.406;2023-03-12T05:14:19;100892.06;;;1.56;87.37
71735;BME280;59577;52.122;5.406;2023-03-12T05:16:45;100892.84;;;1.57;87.75
71735;BME280;59577;52.122;5.406;2023-03-12T05:19:12;100882.16;;;1.57;87.69
71735;BME280;59577;52.122;5.406;2023-03-12T05:21:39;100880.28;;;1.57;87.79
71735;BME280;59577;52.122;5.406;2023-03-12T05:24:14;100880.81;;;1.59;87.87
71735;BME280;59577;52.122;5.406;2023-03-12T05:26:41;100882.38;;;1.60;87.85
71735;BME280;59577;52.122;5.406;2023-03-12T05:29:08;100885.84;;;1.61;88.23
71735;BME280;59577;52.122;5.406;2023-03-12T05:31:34;100888.50;;;1.61;88.07
71735;BME280;59577;52.122;5.406;2023-03-12T05:34:02;100886.88;;;1.65;87.93
71735;BME280;59577;52.122;5.406;2023-03-12T05:36:30;100873.81;;;1.63;87.88
71735;BME280;59577;52.122;5.406;2023-03-12T05:38:57;100880.13;;;1.67;87.90
71735;BME280;59577;52.122;5.406;2023-03-12T05:41:27;100883.63;;;1.68;87.89
71735;BME280;59577;52.122;5.406;2023-03-12T05:43:55;100891.03;;;1.71;87.76
71735;BME280;59577;52.122;5.406;2023-03-12T05:46:25;100875.81;;;1.72;87.80
71735;BME280;59577;52.122;5.406;2023-03-12T05:48:52;100874.22;;;1.71;88.14
71735;BME280;59577;52.122;5.406;2023-03-12T05:51:19;100859.53;;;1.73;88.21
71735;BME280;59577;52.122;5.406;2023-03-12T05:53:46;100861.09;;;1.74;87.92
71735;BME280;59577;52.122;5.406;2023-03-12T05:56:16;100854.91;;;1.79;88.24
71735;BME280;59577;52.122;5.406;2023-03-12T05:58:43;100853.22;;;1.83;87.88
71735;BME280;59577;52.122;5.406;2023-03-12T06:01:12;100856.66;;;1.83;87.67
71735;BME280;59577;52.122;5.406;2023-03-12T06:03:39;100861.44;;;1.86;87.94
71735;BME280;59577;52.122;5.406;2023-03-12T06:06:08;100861.34;;;1.92;87.67
71735;BME280;59577;52.122;5.406;2023-03-12T06:08:35;100865.13;;;1.91;88.10
71735;BME280;59577;52.122;5.406;2023-03-12T06:11:01;100860.56;;;1.91;88.20
71735;BME280;59577;52.122;5.406;2023-03-12T06:13:28;100855.22;;;1.91;88.10
71735;BME280;59577;52.122;5.406;2023-03-12T06:16:01;100864.00;;;1.92;88.53
71735;BME280;59577;52.122;5.406;2023-03-12T06:18:28;100860.56;;;1.91;89.04
71735;BME280;59577;52.122;5.406;2023-03-12T06:20:55;100868.84;;;1.90;89.19
71735;BME280;59577;52.122;5.406;2023-03-12T06:23:21;100854.72;;;1.89;89.39
71735;BME280;59577;52.122;5.406;2023-03-12T06:25:48;100868.84;;;1.90;89.83
71735;BME280;59577;52.122;5.406;2023-03-12T06:28:14;100862.25;;;1.87;89.83
71735;BME280;59577;52.122;5.406;2023-03-12T06:30:43;100859.56;;;1.87;90.17
71735;BME280;59577;52.122;5.406;2023-03-12T06:33:10;100855.31;;;1.86;90.42
71735;BME280;59577;52.122;5.406;2023-03-12T06:35:36;100848.09;;;1.86;91.09
71735;BME280;59577;52.122;5.406;2023-03-12T06:38:03;100851.34;;;1.83;91.09
71735;BME280;59577;52.122;5.406;2023-03-12T06:40:29;100845.22;;;1.83;91.95
71735;BME280;59577;52.122;5.406;2023-03-12T06:42:56;100840.97;;;1.82;92.36
71735;BME280;59577;52.122;5.406;2023-03-12T06:45:22;100850.84;;;1.81;92.95
71735;BME280;59577;52.122;5.406;2023-03-12T06:47:49;100850.53;;;1.83;93.49
71735;BME280;59577;52.122;5.406;2023-03-12T06:50:15;100844.72;;;1.81;93.92
71735;BME280;59577;52.122;5.406;2023-03-12T06:52:42;100827.09;;;1.80;94.27
71735;BME280;59577;52.122;5.406;2023-03-12T06:55:08;100833.53;;;1.79;95.32
71735;BME280;59577;52.122;5.406;2023-03-12T06:57:35;100821.00;;;1.79;96.09
71735;BME280;59577;52.122;5.406;2023-03-12T07:00:03;100827.09;;;1.80;96.30
71735;BME280;59577;52.122;5.406;2023-03-12T07:02:30;100821.78;;;1.80;97.05
71735;BME280;59577;52.122;5.406;2023-03-12T07:04:57;100812.97;;;1.79;97.51
71735;BME280;59577;52.122;5.406;2023-03-12T07:07:26;100809.25;;;1.80;97.90
71735;BME280;59577;52.122;5.406;2023-03-12T07:09:53;100811.91;;;1.80;98.59
71735;BME280;59577;52.122;5.406;2023-03-12T07:12:19;100798.28;;;1.82;99.05
71735;BME280;59577;52.122;5.406;2023-03-12T07:14:46;100790.28;;;1.82;99.41
71735;BME280;59577;52.122;5.406;2023-03-12T07:17:15;100780.09;;;1.84;100.00
71735;BME280;59577;52.122;5.406;2023-03-12T07:19:41;100774.75;;;1.84;100.00
71735;BME280;59577;52.122;5.406;2023-03-12T07:22:08;100782.97;;;1.87;100.00
71735;BME280;59577;52.122;5.406;2023-03-12T07:24:36;100791.47;;;1.90;100.00
71735;BME280;59577;52.122;5.406;2023-03-12T07:27:02;100794.13;;;1.90;100.00
71735;BME280;59577;52.122;5.406;2023-03-12T07:29:29;100791.47;;;1.90;100.00
71735;BME280;59577;52.122;5.406;2023-03-12T07:31:56;100791.94;;;1.92;100.00
71735;BME280;59577;52.122;5.406;2023-03-12T07:34:22;100789.28;;;1.92;100.00
71735;BME280;59577;52.122;5.406;2023-03-12T07:36:49;100805.00;;;1.93;100.00
71735;BME280;59577;52.122;5.406;2023-03-12T07:39:16;100796.41;;;1.96;100.00
71735;BME280;59577;52.122;5.406;2023-03-12T07:41:43;100805.22;;;1.97;100.00
71735;BME280;59577;52.122;5.406;2023-03-12T07:44:09;100824.38;;;1.99;100.00
71735;BME280;59577;52.122;5.406;2023-03-12T07:46:36;100816.56;;;2.02;100.00
71735;BME280;59577;52.122;5.406;2023-03-12T07:49:03;100824.81;;;2.06;100.00
71735;BME280;59577;52.122;5.406;2023-03-12T07:51:30;100827.16;;;2.07;100.00
71735;BME280;59577;52.122;5.406;2023-03-12T07:53:56;100825.81;;;2.10;100.00
71735;BME280;59577;52.122;5.406;2023-03-12T07:56:23;100835.91;;;2.13;100.00
71735;BME280;59577;52.122;5.406;2023-03-12T07:58:50;100837.47;;;2.14;100.00
71735;BME280;59577;52.122;5.406;2023-03-12T08:01:17;100833.94;;;2.19;100.00
71735;BME280;59577;52.122;5.406;2023-03-12T08:03:43;100836.78;;;2.22;100.00
71735;BME280;59577;52.122;5.406;2023-03-12T08:06:10;100831.94;;;2.24;100.00
71735;BME280;59577;52.122;5.406;2023-03-12T08:08:37;100834.53;;;2.30;100.00
71735;BME280;59577;52.122;5.406;2023-03-12T08:11:08;100825.44;;;2.31;100.00
71735;BME280;59577;52.122;5.406;2023-03-12T08:13:34;100814.94;;;2.34;100.00
71735;BME280;59577;52.122;5.406;2023-03-12T08:16:02;100814.38;;;2.37;100.00
71735;BME280;59577;52.122;5.406;2023-03-12T08:18:29;100815.06;;;2.43;100.00
71735;BME280;59577;52.122;5.406;2023-03-12T08:20:55;100808.81;;;2.48;100.00
71735;BME280;59577;52.122;5.406;2023-03-12T08:23:22;100812.00;;;2.50;100.00
71735;BME280;59577;52.122;5.406;2023-03-12T08:25:49;100808.72;;;2.53;100.00
71735;BME280;59577;52.122;5.406;2023-03-12T08:28:17;100816.94;;;2.56;100.00
71735;BME280;59577;52.122;5.406;2023-03-12T08:30:49;100820.59;;;2.60;100.00
71735;BME280;59577;52.122;5.406;2023-03-12T08:33:16;100820.78;;;2.64;100.00
71735;BME280;59577;52.122;5.406;2023-03-12T08:35:43;100813.44;;;2.70;100.00
71735;BME280;59577;52.122;5.406;2023-03-12T08:38:10;100813.03;;;2.76;100.00
71735;BME280;59577;52.122;5.406;2023-03-12T08:40:37;100813.25;;;2.80;100.00
71735;BME280;59577;52.122;5.406;2023-03-12T08:43:03;100808.88;;;2.84;100.00
71735;BME280;59577;52.122;5.406;2023-03-12T08:45:30;100818.66;;;2.89;100.00
71735;BME280;59577;52.122;5.406;2023-03-12T08:47:57;100821.53;;;2.92;100.00
71735;BME280;59577;52.122;5.406;2023-03-12T08:50:23;100816.41;;;2.96;100.00
71735;BME280;59577;52.122;5.406;2023-03-12T08:52:54;100803.41;;;3.03;100.00
71735;BME280;59577;52.122;5.406;2023-03-12T08:55:21;100833.78;;;3.07;100.00
71735;BME280;59577;52.122;5.406;2023-03-12T08:57:48;100816.56;;;3.13;100.00
71735;BME280;59577;52.122;5.406;2023-03-12T09:00:14;100817.41;;;3.23;100.00
71735;BME280;59577;52.122;5.406;2023-03-12T09:02:48;100823.72;;;3.27;100.00
71735;BME280;59577;52.122;5.406;2023-03-12T09:05:17;100821.22;;;3.30;100.00
71735;BME280;59577;52.122;5.406;2023-03-12T09:07:44;100830.75;;;3.36;100.00
71735;BME280;59577;52.122;5.406;2023-03-12T09:10:11;100815.84;;;3.44;100.00
71735;BME280;59577;52.122;5.406;2023-03-12T09:12:37;100824.72;;;3.53;100.00
71735;BME280;59577;52.122;5.406;2023-03-12T09:15:04;100821.00;;;3.63;100.00
71735;BME280;59577;52.122;5.406;2023-03-12T09:17:31;100818.38;;;3.72;100.00
71735;BME280;59577;52.122;5.406;2023-03-12T09:19:58;100805.25;;;3.84;100.00
71735;BME280;59577;52.122;5.406;2023-03-12T09:22:25;100796.81;;;4.00;100.00
71735;BME280;59577;52.122;5.406;2023-03-12T09:24:52;100801.13;;;4.09;100.00
71735;BME280;59577;52.122;5.406;2023-03-12T09:27:18;100805.09;;;4.12;100.00
71735;BME280;59577;52.122;5.406;2023-03-12T09:29:44;100803.66;;;4.14;100.00
71735;BME280;59577;52.122;5.406;2023-03-12T09:32:25;100793.63;;;4.29;100.00
71735;BME280;59577;52.122;5.406;2023-03-12T09:34:52;100794.31;;;4.43;100.00
71735;BME280;59577;52.122;5.406;2023-03-12T09:37:19;100798.91;;;4.51;100.00
71735;BME280;59577;52.122;5.406;2023-03-12T09:39:50;100798.16;;;4.68;100.00
71735;BME280;59577;52.122;5.406;2023-03-12T09:45:27;100814.28;;;4.95;100.00
71735;BME280;59577;52.122;5.406;2023-03-12T09:48:00;100815.25;;;4.99;100.00
71735;BME280;59577;52.122;5.406;2023-03-12T09:50:32;100806.59;;;5.02;100.00
71735;BME280;59577;52.122;5.406;2023-03-12T09:55:34;100812.09;;;5.05;100.00
71735;BME280;59577;52.122;5.406;2023-03-12T09:58:02;100810.22;;;5.15;100.00
71735;BME280;59577;52.122;5.406;2023-03-12T10:00:33;100816.34;;;5.24;100.00
71735;BME280;59577;52.122;5.406;2023-03-12T10:13:46;100818.06;;;5.63;100.00
71735;BME280;59577;52.122;5.406;2023-03-12T10:16:34;100820.44;;;5.65;100.00
71735;BME280;59577;52.122;5.406;2023-03-12T10:28:15;100808.56;;;6.01;100.00
71735;BME280;59577;52.122;5.406;2023-03-12T10:30:49;100806.44;;;6.15;100.00
71735;BME280;59577;52.122;5.406;2023-03-12T10:33:18;100806.59;;;6.19;100.00
71735;BME280;59577;52.122;5.406;2023-03-12T10:35:46;100816.69;;;6.22;100.00
71735;BME280;59577;52.122;5.406;2023-03-12T10:38:21;100816.97;;;6.29;100.00
71735;BME280;59577;52.122;5.406;2023-03-12T10:40:51;100818.06;;;6.37;100.00
71735;BME280;59577;52.122;5.406;2023-03-12T10:43:18;100821.13;;;6.56;100.00
71735;BME280;59577;52.122;5.406;2023-03-12T10:46:03;100813.47;;;6.67;100.00
71735;BME280;59577;52.122;5.406;2023-03-12T10:48:37;100810.28;;;6.74;100.00
71735;BME280;59577;52.122;5.406;2023-03-12T10:51:10;100809.44;;;6.82;100.00
71735;BME280;59577;52.122;5.406;2023-03-12T10:53:43;100807.34;;;6.88;100.00
71735;BME280;59577;52.122;5.406;2023-03-12T10:56:16;100800.53;;;7.11;100.00
71735;BME280;59577;52.122;5.406;2023-03-12T10:58:45;100810.84;;;7.30;100.00
71735;BME280;59577;52.122;5.406;2023-03-12T11:01:24;100819.69;;;7.31;100.00
71735;BME280;59577;52.122;5.406;2023-03-12T11:04:06;100807.13;;;7.35;100.00
71735;BME280;59577;52.122;5.406;2023-03-12T11:06:36;100816.97;;;7.52;100.00
71735;BME280;59577;52.122;5.406;2023-03-12T11:09:12;100811.03;;;7.59;100.00
71735;BME280;59577;52.122;5.406;2023-03-12T11:11:43;100812.97;;;7.58;100.00
71735;BME280;59577;52.122;5.406;2023-03-12T11:14:19;100807.38;;;7.63;100.00
71735;BME280;59577;52.122;5.406;2023-03-12T11:16:48;100810.97;;;7.67;100.00
71735;BME280;59577;52.122;5.406;2023-03-12T11:19:30;100823.31;;;7.68;100.00
71735;BME280;59577;52.122;5.406;2023-03-12T11:22:03;100832.09;;;7.78;100.00
71735;BME280;59577;52.122;5.406;2023-03-12T11:24:30;100836.63;;;7.86;100.00
71735;BME280;59577;52.122;5.406;2023-03-12T11:27:18;100827.41;;;7.87;100.00
71735;BME280;59577;52.122;5.406;2023-03-12T11:29:51;100836.75;;;7.89;100.00
71735;BME280;59577;52.122;5.406;2023-03-12T11:32:40;100835.38;;;7.96;100.00
71735;BME280;59577;52.122;5.406;2023-03-12T11:35:17;100839.34;;;7.98;100.00
71735;BME280;59577;52.122;5.406;2023-03-12T11:38:16;100831.03;;;8.03;100.00
71735;BME280;59577;52.122;5.406;2023-03-12T11:46:43;100829.56;;;8.06;100.00
71735;BME280;59577;52.122;5.406;2023-03-12T11:49:40;100834.19;;;8.05;100.00
71735;BME280;59577;52.122;5.406;2023-03-12T11:52:41;100824.63;;;8.08;100.00
71735;BME280;59577;52.122;5.406;2023-03-12T11:55:17;100824.28;;;8.09;100.00
71735;BME280;59577;52.122;5.406;2023-03-12T12:01:07;100810.25;;;8.16;100.00
71735;BME280;59577;52.122;5.406;2023-03-12T12:07:26;100800.84;;;8.35;100.00
71735;BME280;59577;52.122;5.406;2023-03-12T12:09:35;100797.16;;;8.39;100.00
71735;BME280;59577;52.122;5.406;2023-03-12T12:15:05;100790.31;;;8.54;100.00
71735;BME280;59577;52.122;5.406;2023-03-12T12:17:57;100795.03;;;8.57;100.00
71735;BME280;59577;52.122;5.406;2023-03-12T12:20:38;100795.59;;;8.51;100.00
71735;BME280;59577;52.122;5.406;2023-03-12T12:23:16;100797.63;;;8.54;100.00
71735;BME280;59577;52.122;5.406;2023-03-12T12:26:04;100795.81;;;8.58;100.00
71735;BME280;59577;52.122;5.406;2023-03-12T12:37:21;100768.28;;;9.05;100.00
71735;BME280;59577;52.122;5.406;2023-03-12T12:39:51;100772.25;;;9.23;100.00
71735;BME280;59577;52.122;5.406;2023-03-12T12:42:24;100763.94;;;9.45;100.00
71735;BME280;59577;52.122;5.406;2023-03-12T12:44:54;100780.63;;;9.47;100.00
71735;BME280;59577;52.122;5.406;2023-03-12T12:47:37;100783.31;;;9.47;100.00
71735;BME280;59577;52.122;5.406;2023-03-12T12:50:06;100784.19;;;9.51;100.00
71735;BME280;59577;52.122;5.406;2023-03-12T12:52:37;100763.81;;;9.53;100.00
71735;BME280;59577;52.122;5.406;2023-03-12T12:55:18;100777.19;;;9.50;100.00
71735;BME280;59577;52.122;5.406;2023-03-12T13:00:39;100753.38;;;9.68;100.00
71735;BME280;59577;52.122;5.406;2023-03-12T13:03:13;100759.13;;;9.66;100.00
71735;BME280;59577;52.122;5.406;2023-03-12T13:05:45;100762.59;;;9.67;100.00
71735;BME280;59577;52.122;5.406;2023-03-12T13:11:22;100744.47;;;9.83;100.00
71735;BME280;59577;52.122;5.406;2023-03-12T13:16:41;100735.13;;;9.81;99.78
71735;BME280;59577;52.122;5.406;2023-03-12T13:22:12;100758.94;;;9.75;98.95
71735;BME280;59577;52.122;5.406;2023-03-12T13:27:57;100749.47;;;9.81;98.17
71735;BME280;59577;52.122;5.406;2023-03-12T13:35:36;100740.72;;;9.72;98.76
71735;BME280;59577;52.122;5.406;2023-03-12T13:38:10;100746.38;;;9.67;97.42
71735;BME280;59577;52.122;5.406;2023-03-12T13:40:54;100754.72;;;9.62;97.00
71735;BME280;59577;52.122;5.406;2023-03-12T13:43:40;100746.97;;;9.60;97.55
71735;BME280;59577;52.122;5.406;2023-03-12T13:46:21;100755.22;;;9.79;97.29
71735;BME280;59577;52.122;5.406;2023-03-12T13:48:56;100771.25;;;10.04;96.68
71735;BME280;59577;52.122;5.406;2023-03-12T13:51:25;100775.25;;;10.26;95.42
71735;BME280;59577;52.122;5.406;2023-03-12T13:53:55;100770.00;;;10.49;94.82
71735;BME280;59577;52.122;5.406;2023-03-12T13:56:31;100769.97;;;10.65;93.03
71735;BME280;59577;52.122;5.406;2023-03-12T13:59:01;100766.34;;;10.77;92.86
71735;BME280;59577;52.122;5.406;2023-03-12T14:01:34;100763.88;;;10.88;92.46
71735;BME280;59577;52.122;5.406;2023-03-12T14:04:22;100765.94;;;10.95;91.04
71735;BME280;59577;52.122;5.406;2023-03-12T14:13:08;100769.78;;;11.33;90.68
71735;BME280;59577;52.122;5.406;2023-03-12T14:18:28;100777.88;;;11.52;87.33
71735;BME280;59577;52.122;5.406;2023-03-12T14:21:02;100768.78;;;11.41;86.61
71735;BME280;59577;52.122;5.406;2023-03-12T14:23:54;100786.81;;;11.33;85.85
71735;BME280;59577;52.122;5.406;2023-03-12T14:26:31;100796.69;;;11.22;85.76
71735;BME280;59577;52.122;5.406;2023-03-12T14:29:09;100791.53;;;11.17;85.10